sensor_id;sensor_type;location;lat;lon;timestamp;P1;durP1;ratioP1;P2;durP2;ratioP2
33836;SDS011;20140;49.356;8.812;2022-11-15T00:00:49;10.50;;;6.97;;
33836;SDS011;20140;49.356;8.812;2022-11-15T00:03:15;7.05;;;4.97;;
33836;SDS011;20140;49.356;8.812;2022-11-15T00:05:41;6.13;;;5.50;;
33836;SDS011;20140;49.356;8.812;2022-11-15T00:08:07;6.00;;;5.10;;
33836;SDS011;20140;49.356;8.812;2022-11-15T00:10:33;14.50;;;8.27;;
33836;SDS011;20140;49.356;8.812;2022-11-15T00:12:59;7.57;;;6.10;;
33836;SDS011;20140;49.356;8.812;2022-11-15T00:15:24;7.47;;;5.47;;
33836;SDS011;20140;49.356;8.812;2022-11-15T00:17:50;7.50;;;5.80;;
33836;SDS011;20140;49.356;8.812;2022-11-15T00:20:17;11.40;;;7.53;;
33836;SDS011;20140;49.356;8.812;2022-11-15T00:22:43;13.60;;;8.07;;
33836;SDS011;20140;49.356;8.812;2022-11-15T00:25:08;9.87;;;6.20;;
33836;SDS011;20140;49.356;8.812;2022-11-15T00:27:34;8.03;;;6.17;;
33836;SDS011;20140;49.356;8.812;2022-11-15T00:30:00;8.60;;;5.67;;
33836;SDS011;20140;49.356;8.812;2022-11-15T00:32:25;9.33;;;6.53;;
33836;SDS011;20140;49.356;8.812;2022-11-15T00:34:51;8.67;;;5.40;;
33836;SDS011;20140;49.356;8.812;2022-11-15T00:37:16;8.68;;;5.78;;
33836;SDS011;20140;49.356;8.812;2022-11-15T00:39:42;9.50;;;5.33;;
33836;SDS011;20140;49.356;8.812;2022-11-15T00:42:07;6.18;;;4.65;;
33836;SDS011;20140;49.356;8.812;2022-11-15T00:44:33;5.90;;;4.57;;
33836;SDS011;20140;49.356;8.812;2022-11-15T00:46:58;5.90;;;4.33;;
33836;SDS011;20140;49.356;8.812;2022-11-15T00:49:24;6.37;;;4.87;;
33836;SDS011;20140;49.356;8.812;2022-11-15T00:51:50;7.47;;;5.57;;
33836;SDS011;20140;49.356;8.812;2022-11-15T00:54:15;6.10;;;3.97;;
33836;SDS011;20140;49.356;8.812;2022-11-15T00:56:41;4.40;;;4.00;;
33836;SDS011;20140;49.356;8.812;2022-11-15T00:59:06;5.60;;;4.40;;
33836;SDS011;20140;49.356;8.812;2022-11-15T01:01:32;9.77;;;4.75;;
33836;SDS011;20140;49.356;8.812;2022-11-15T01:03:57;6.45;;;4.78;;
33836;SDS011;20140;49.356;8.812;2022-11-15T01:06:23;5.73;;;4.47;;
33836;SDS011;20140;49.356;8.812;2022-11-15T01:08:48;7.03;;;4.90;;
33836;SDS011;20140;49.356;8.812;2022-11-15T01:11:14;8.00;;;4.73;;
33836;SDS011;20140;49.356;8.812;2022-11-15T01:13:39;5.33;;;4.83;;
33836;SDS011;20140;49.356;8.812;2022-11-15T01:16:09;5.63;;;5.03;;
33836;SDS011;20140;49.356;8.812;2022-11-15T01:18:37;6.20;;;4.80;;
33836;SDS011;20140;49.356;8.812;2022-11-15T01:21:07;5.88;;;4.45;;
33836;SDS011;20140;49.356;8.812;2022-11-15T01:23:34;5.75;;;4.82;;
33836;SDS011;20140;49.356;8.812;2022-11-15T01:26:00;7.97;;;4.90;;
33836;SDS011;20140;49.356;8.812;2022-11-15T01:28:30;7.65;;;5.20;;
33836;SDS011;20140;49.356;8.812;2022-11-15T01:31:04;7.88;;;4.68;;
33836;SDS011;20140;49.356;8.812;2022-11-15T01:33:35;5.75;;;4.45;;
33836;SDS011;20140;49.356;8.812;2022-11-15T01:36:09;7.87;;;5.20;;
33836;SDS011;20140;49.356;8.812;2022-11-15T01:38:40;5.38;;;4.40;;
33836;SDS011;20140;49.356;8.812;2022-11-15T01:41:05;5.33;;;3.63;;
33836;SDS011;20140;49.356;8.812;2022-11-15T01:43:35;4.40;;;3.70;;
33836;SDS011;20140;49.356;8.812;2022-11-15T01:46:05;8.45;;;4.63;;
33836;SDS011;20140;49.356;8.812;2022-11-15T01:48:40;4.93;;;3.88;;
33836;SDS011;20140;49.356;8.812;2022-11-15T01:51:09;6.18;;;5.05;;
33836;SDS011;20140;49.356;8.812;2022-11-15T01:53:37;5.55;;;3.90;;
33836;SDS011;20140;49.356;8.812;2022-11-15T01:56:12;7.05;;;4.82;;
33836;SDS011;20140;49.356;8.812;2022-11-15T01:58:42;5.78;;;4.05;;
33836;SDS011;20140;49.356;8.812;2022-11-15T02:01:10;5.03;;;4.40;;
33836;SDS011;20140;49.356;8.812;2022-11-15T02:04:22;7.45;;;4.63;;
33836;SDS011;20140;49.356;8.812;2022-11-15T02:06:24;8.63;;;4.87;;
33836;SDS011;20140;49.356;8.812;2022-11-15T02:08:50;5.53;;;4.50;;
33836;SDS011;20140;49.356;8.812;2022-11-15T02:11:16;6.40;;;4.13;;
33836;SDS011;20140;49.356;8.812;2022-11-15T02:13:42;6.73;;;4.20;;
33836;SDS011;20140;49.356;8.812;2022-11-15T02:18:57;7.60;;;4.28;;
33836;SDS011;20140;49.356;8.812;2022-11-15T02:21:33;6.35;;;4.80;;
33836;SDS011;20140;49.356;8.812;2022-11-15T02:33:11;5.22;;;3.83;;
33836;SDS011;20140;49.356;8.812;2022-11-15T02:35:58;4.53;;;3.78;;
33836;SDS011;20140;49.356;8.812;2022-11-15T02:41:20;4.43;;;3.92;;
33836;SDS011;20140;49.356;8.812;2022-11-15T02:43:53;5.93;;;4.10;;
33836;SDS011;20140;49.356;8.812;2022-11-15T02:46:41;6.22;;;4.28;;
33836;SDS011;20140;49.356;8.812;2022-11-15T02:49:35;6.05;;;4.03;;
33836;SDS011;20140;49.356;8.812;2022-11-15T02:52:02;4.25;;;3.38;;
33836;SDS011;20140;49.356;8.812;2022-11-15T02:54:32;4.35;;;3.85;;
33836;SDS011;20140;49.356;8.812;2022-11-15T02:57:00;4.97;;;4.15;;
33836;SDS011;20140;49.356;8.812;2022-11-15T02:59:36;4.07;;;3.47;;
33836;SDS011;20140;49.356;8.812;2022-11-15T03:07:51;5.13;;;3.67;;
33836;SDS011;20140;49.356;8.812;2022-11-15T03:10:24;4.50;;;3.47;;
33836;SDS011;20140;49.356;8.812;2022-11-15T03:13:16;6.80;;;3.90;;
33836;SDS011;20140;49.356;8.812;2022-11-15T03:16:15;5.10;;;3.33;;
33836;SDS011;20140;49.356;8.812;2022-11-15T03:19:04;5.40;;;3.50;;
33836;SDS011;20140;49.356;8.812;2022-11-15T03:21:36;6.93;;;4.63;;
33836;SDS011;20140;49.356;8.812;2022-11-15T03:24:05;4.30;;;3.30;;
33836;SDS011;20140;49.356;8.812;2022-11-15T03:26:33;4.50;;;3.05;;
33836;SDS011;20140;49.356;8.812;2022-11-15T03:29:03;4.45;;;3.60;;
33836;SDS011;20140;49.356;8.812;2022-11-15T03:31:33;3.83;;;3.40;;
33836;SDS011;20140;49.356;8.812;2022-11-15T03:35:15;4.60;;;3.97;;
33836;SDS011;20140;49.356;8.812;2022-11-15T03:37:14;5.22;;;4.18;;
33836;SDS011;20140;49.356;8.812;2022-11-15T03:39:42;5.75;;;3.40;;
33836;SDS011;20140;49.356;8.812;2022-11-15T03:44:42;4.13;;;3.72;;
33836;SDS011;20140;49.356;8.812;2022-11-15T03:47:21;8.02;;;4.22;;
33836;SDS011;20140;49.356;8.812;2022-11-15T03:49:59;9.05;;;4.47;;
33836;SDS011;20140;49.356;8.812;2022-11-15T03:52:32;5.97;;;4.35;;
33836;SDS011;20140;49.356;8.812;2022-11-15T03:54:59;4.70;;;3.80;;
33836;SDS011;20140;49.356;8.812;2022-11-15T03:57:26;5.30;;;3.90;;
33836;SDS011;20140;49.356;8.812;2022-11-15T03:59:52;9.63;;;4.03;;
33836;SDS011;20140;49.356;8.812;2022-11-15T04:02:17;5.83;;;3.97;;
33836;SDS011;20140;49.356;8.812;2022-11-15T04:04:43;4.20;;;3.80;;
33836;SDS011;20140;49.356;8.812;2022-11-15T04:07:08;6.40;;;3.67;;
33836;SDS011;20140;49.356;8.812;2022-11-15T04:09:34;5.37;;;3.97;;
33836;SDS011;20140;49.356;8.812;2022-11-15T04:12:19;6.00;;;4.15;;
33836;SDS011;20140;49.356;8.812;2022-11-15T04:14:55;5.63;;;3.97;;
33836;SDS011;20140;49.356;8.812;2022-11-15T04:17:42;4.88;;;3.85;;
33836;SDS011;20140;49.356;8.812;2022-11-15T04:20:25;5.32;;;4.00;;
33836;SDS011;20140;49.356;8.812;2022-11-15T04:23:12;8.75;;;5.15;;
33836;SDS011;20140;49.356;8.812;2022-11-15T04:26:01;6.80;;;4.87;;
33836;SDS011;20140;49.356;8.812;2022-11-15T04:28:29;6.38;;;4.90;;
33836;SDS011;20140;49.356;8.812;2022-11-15T04:30:55;7.38;;;5.40;;
33836;SDS011;20140;49.356;8.812;2022-11-15T04:33:21;5.15;;;4.45;;
33836;SDS011;20140;49.356;8.812;2022-11-15T04:35:47;6.75;;;5.50;;
33836;SDS011;20140;49.356;8.812;2022-11-15T04:38:33;7.00;;;5.17;;
33836;SDS011;20140;49.356;8.812;2022-11-15T04:40:59;6.82;;;4.85;;
33836;SDS011;20140;49.356;8.812;2022-11-15T04:43:25;5.17;;;4.63;;
33836;SDS011;20140;49.356;8.812;2022-11-15T04:45:50;6.20;;;5.60;;
33836;SDS011;20140;49.356;8.812;2022-11-15T04:48:16;6.27;;;5.67;;
33836;SDS011;20140;49.356;8.812;2022-11-15T04:50:41;5.90;;;5.03;;
33836;SDS011;20140;49.356;8.812;2022-11-15T04:53:07;6.87;;;5.10;;
33836;SDS011;20140;49.356;8.812;2022-11-15T04:55:33;8.63;;;5.73;;
33836;SDS011;20140;49.356;8.812;2022-11-15T04:58:01;6.93;;;5.78;;
33836;SDS011;20140;49.356;8.812;2022-11-15T05:00:28;6.93;;;5.83;;
33836;SDS011;20140;49.356;8.812;2022-11-15T05:02:55;6.68;;;5.18;;
33836;SDS011;20140;49.356;8.812;2022-11-15T05:05:40;10.07;;;5.40;;
33836;SDS011;20140;49.356;8.812;2022-11-15T05:08:06;5.63;;;4.78;;
33836;SDS011;20140;49.356;8.812;2022-11-15T05:10:31;6.18;;;5.40;;
33836;SDS011;20140;49.356;8.812;2022-11-15T05:12:57;9.00;;;5.95;;
33836;SDS011;20140;49.356;8.812;2022-11-15T05:15:22;6.50;;;5.30;;
33836;SDS011;20140;49.356;8.812;2022-11-15T05:17:48;7.17;;;5.47;;
33836;SDS011;20140;49.356;8.812;2022-11-15T05:20:13;9.27;;;5.87;;
33836;SDS011;20140;49.356;8.812;2022-11-15T05:22:39;5.07;;;4.57;;
33836;SDS011;20140;49.356;8.812;2022-11-15T05:25:05;4.97;;;4.47;;
33836;SDS011;20140;49.356;8.812;2022-11-15T05:27:32;6.00;;;4.63;;
33836;SDS011;20140;49.356;8.812;2022-11-15T05:29:58;7.00;;;5.25;;
33836;SDS011;20140;49.356;8.812;2022-11-15T05:32:24;5.32;;;4.78;;
33836;SDS011;20140;49.356;8.812;2022-11-15T05:34:50;8.23;;;5.25;;
33836;SDS011;20140;49.356;8.812;2022-11-15T05:37:16;10.95;;;7.68;;
33836;SDS011;20140;49.356;8.812;2022-11-15T05:39:41;20.07;;;15.67;;
33836;SDS011;20140;49.356;8.812;2022-11-15T05:42:09;15.60;;;11.30;;
33836;SDS011;20140;49.356;8.812;2022-11-15T05:44:36;9.73;;;8.60;;
33836;SDS011;20140;49.356;8.812;2022-11-15T05:47:04;11.70;;;9.68;;
33836;SDS011;20140;49.356;8.812;2022-11-15T05:49:34;12.48;;;9.77;;
33836;SDS011;20140;49.356;8.812;2022-11-15T05:52:03;8.45;;;7.65;;
33836;SDS011;20140;49.356;8.812;2022-11-15T05:54:31;9.30;;;7.47;;
33836;SDS011;20140;49.356;8.812;2022-11-15T05:56:58;8.40;;;7.50;;
33836;SDS011;20140;49.356;8.812;2022-11-15T05:59:24;11.98;;;6.47;;
33836;SDS011;20140;49.356;8.812;2022-11-15T06:01:50;6.73;;;5.73;;
33836;SDS011;20140;49.356;8.812;2022-11-15T06:04:16;7.67;;;5.60;;
33836;SDS011;20140;49.356;8.812;2022-11-15T06:06:42;5.97;;;5.37;;
33836;SDS011;20140;49.356;8.812;2022-11-15T06:09:07;6.60;;;4.95;;
33836;SDS011;20140;49.356;8.812;2022-11-15T06:11:33;5.50;;;5.00;;
33836;SDS011;20140;49.356;8.812;2022-11-15T06:13:58;7.03;;;5.27;;
33836;SDS011;20140;49.356;8.812;2022-11-15T06:16:24;9.27;;;6.50;;
33836;SDS011;20140;49.356;8.812;2022-11-15T06:18:49;6.03;;;5.43;;
33836;SDS011;20140;49.356;8.812;2022-11-15T06:21:15;5.37;;;4.73;;
33836;SDS011;20140;49.356;8.812;2022-11-15T06:23:40;6.13;;;5.45;;
33836;SDS011;20140;49.356;8.812;2022-11-15T06:26:06;7.80;;;4.82;;
33836;SDS011;20140;49.356;8.812;2022-11-15T06:28:32;7.75;;;4.75;;
33836;SDS011;20140;49.356;8.812;2022-11-15T06:31:04;6.72;;;5.07;;
33836;SDS011;20140;49.356;8.812;2022-11-15T06:33:31;6.63;;;5.50;;
33836;SDS011;20140;49.356;8.812;2022-11-15T06:36:01;5.07;;;4.50;;
33836;SDS011;20140;49.356;8.812;2022-11-15T06:38:28;7.57;;;5.35;;
33836;SDS011;20140;49.356;8.812;2022-11-15T06:40:54;6.97;;;5.67;;
33836;SDS011;20140;49.356;8.812;2022-11-15T06:43:19;6.03;;;5.30;;
33836;SDS011;20140;49.356;8.812;2022-11-15T06:45:45;5.57;;;4.93;;
33836;SDS011;20140;49.356;8.812;2022-11-15T06:48:10;5.37;;;4.20;;
33836;SDS011;20140;49.356;8.812;2022-11-15T06:50:36;8.30;;;4.63;;
33836;SDS011;20140;49.356;8.812;2022-11-15T06:53:02;8.60;;;6.80;;
33836;SDS011;20140;49.356;8.812;2022-11-15T06:55:28;5.88;;;5.15;;
33836;SDS011;20140;49.356;8.812;2022-11-15T06:57:54;8.50;;;5.83;;
33836;SDS011;20140;49.356;8.812;2022-11-15T07:00:20;6.70;;;4.80;;
33836;SDS011;20140;49.356;8.812;2022-11-15T07:02:47;6.03;;;4.97;;
33836;SDS011;20140;49.356;8.812;2022-11-15T07:05:13;5.50;;;4.68;;
33836;SDS011;20140;49.356;8.812;2022-11-15T07:07:39;6.10;;;5.00;;
33836;SDS011;20140;49.356;8.812;2022-11-15T07:10:05;6.03;;;4.80;;
33836;SDS011;20140;49.356;8.812;2022-11-15T07:12:31;5.30;;;4.43;;
33836;SDS011;20140;49.356;8.812;2022-11-15T07:14:57;5.50;;;4.28;;
33836;SDS011;20140;49.356;8.812;2022-11-15T07:17:22;3.50;;;3.20;;
33836;SDS011;20140;49.356;8.812;2022-11-15T07:19:48;4.50;;;3.53;;
33836;SDS011;20140;49.356;8.812;2022-11-15T07:22:14;4.73;;;4.23;;
33836;SDS011;20140;49.356;8.812;2022-11-15T07:24:39;6.93;;;4.70;;
33836;SDS011;20140;49.356;8.812;2022-11-15T07:27:05;6.20;;;5.03;;
33836;SDS011;20140;49.356;8.812;2022-11-15T07:29:30;6.43;;;4.40;;
33836;SDS011;20140;49.356;8.812;2022-11-15T07:31:56;5.03;;;4.13;;
33836;SDS011;20140;49.356;8.812;2022-11-15T07:34:21;5.55;;;4.72;;
33836;SDS011;20140;49.356;8.812;2022-11-15T07:36:47;6.28;;;4.43;;
33836;SDS011;20140;49.356;8.812;2022-11-15T07:39:12;5.23;;;4.73;;
33836;SDS011;20140;49.356;8.812;2022-11-15T07:41:39;7.47;;;5.53;;
33836;SDS011;20140;49.356;8.812;2022-11-15T07:44:04;8.27;;;6.60;;
33836;SDS011;20140;49.356;8.812;2022-11-15T07:46:30;10.27;;;7.13;;
33836;SDS011;20140;49.356;8.812;2022-11-15T07:48:56;9.75;;;8.15;;
33836;SDS011;20140;49.356;8.812;2022-11-15T07:51:22;12.73;;;8.48;;
33836;SDS011;20140;49.356;8.812;2022-11-15T07:53:48;22.73;;;15.98;;
33836;SDS011;20140;49.356;8.812;2022-11-15T07:56:13;16.85;;;10.52;;
33836;SDS011;20140;49.356;8.812;2022-11-15T07:58:39;11.07;;;8.65;;
33836;SDS011;20140;49.356;8.812;2022-11-15T08:01:06;11.13;;;8.38;;
33836;SDS011;20140;49.356;8.812;2022-11-15T08:03:32;9.25;;;7.90;;
33836;SDS011;20140;49.356;8.812;2022-11-15T08:05:58;12.88;;;8.63;;
33836;SDS011;20140;49.356;8.812;2022-11-15T08:08:24;12.20;;;8.65;;
33836;SDS011;20140;49.356;8.812;2022-11-15T08:10:50;10.43;;;7.35;;
33836;SDS011;20140;49.356;8.812;2022-11-15T08:13:16;10.57;;;7.60;;
33836;SDS011;20140;49.356;8.812;2022-11-15T08:15:41;10.73;;;7.23;;
33836;SDS011;20140;49.356;8.812;2022-11-15T08:18:10;12.75;;;7.30;;
33836;SDS011;20140;49.356;8.812;2022-11-15T08:20:37;11.00;;;7.85;;
33836;SDS011;20140;49.356;8.812;2022-11-15T08:23:03;9.27;;;7.83;;
33836;SDS011;20140;49.356;8.812;2022-11-15T08:25:30;11.25;;;8.30;;
33836;SDS011;20140;49.356;8.812;2022-11-15T08:27:58;10.50;;;7.53;;
33836;SDS011;20140;49.356;8.812;2022-11-15T08:30:25;13.63;;;10.30;;
33836;SDS011;20140;49.356;8.812;2022-11-15T08:32:52;56.85;;;34.22;;
33836;SDS011;20140;49.356;8.812;2022-11-15T08:35:19;22.85;;;17.13;;
33836;SDS011;20140;49.356;8.812;2022-11-15T08:37:45;54.25;;;32.83;;
33836;SDS011;20140;49.356;8.812;2022-11-15T08:40:11;29.53;;;19.80;;
33836;SDS011;20140;49.356;8.812;2022-11-15T08:42:37;15.27;;;10.88;;
33836;SDS011;20140;49.356;8.812;2022-11-15T08:45:03;19.13;;;13.87;;
33836;SDS011;20140;49.356;8.812;2022-11-15T08:47:29;15.60;;;9.88;;
33836;SDS011;20140;49.356;8.812;2022-11-15T08:49:55;12.98;;;9.30;;
33836;SDS011;20140;49.356;8.812;2022-11-15T08:52:20;11.40;;;8.23;;
33836;SDS011;20140;49.356;8.812;2022-11-15T08:54:46;11.90;;;8.80;;
33836;SDS011;20140;49.356;8.812;2022-11-15T08:57:12;10.85;;;7.90;;
33836;SDS011;20140;49.356;8.812;2022-11-15T08:59:37;22.45;;;17.30;;
33836;SDS011;20140;49.356;8.812;2022-11-15T09:02:03;18.75;;;14.60;;
33836;SDS011;20140;49.356;8.812;2022-11-15T09:04:29;24.95;;;19.38;;
33836;SDS011;20140;49.356;8.812;2022-11-15T09:06:55;23.73;;;17.92;;
33836;SDS011;20140;49.356;8.812;2022-11-15T09:09:20;25.07;;;16.90;;
33836;SDS011;20140;49.356;8.812;2022-11-15T09:11:46;22.70;;;16.73;;
33836;SDS011;20140;49.356;8.812;2022-11-15T09:14:12;25.40;;;18.10;;
33836;SDS011;20140;49.356;8.812;2022-11-15T09:16:38;27.70;;;18.38;;
33836;SDS011;20140;49.356;8.812;2022-11-15T09:19:04;15.93;;;11.93;;
33836;SDS011;20140;49.356;8.812;2022-11-15T09:21:30;17.23;;;11.47;;
33836;SDS011;20140;49.356;8.812;2022-11-15T09:23:56;10.77;;;8.70;;
33836;SDS011;20140;49.356;8.812;2022-11-15T09:26:22;9.55;;;7.47;;
33836;SDS011;20140;49.356;8.812;2022-11-15T09:28:47;8.53;;;5.83;;
33836;SDS011;20140;49.356;8.812;2022-11-15T09:31:13;9.27;;;5.97;;
33836;SDS011;20140;49.356;8.812;2022-11-15T09:33:39;8.48;;;6.22;;
33836;SDS011;20140;49.356;8.812;2022-11-15T09:36:06;8.90;;;5.63;;
33836;SDS011;20140;49.356;8.812;2022-11-15T09:38:33;8.02;;;5.10;;
33836;SDS011;20140;49.356;8.812;2022-11-15T09:43:44;7.07;;;5.00;;
33836;SDS011;20140;49.356;8.812;2022-11-15T09:46:44;6.53;;;5.78;;
33836;SDS011;20140;49.356;8.812;2022-11-15T09:49:25;6.22;;;5.22;;
33836;SDS011;20140;49.356;8.812;2022-11-15T09:51:53;7.47;;;5.17;;
33836;SDS011;20140;49.356;8.812;2022-11-15T09:54:36;5.37;;;4.43;;
33836;SDS011;20140;49.356;8.812;2022-11-15T09:59:53;5.70;;;4.78;;
33836;SDS011;20140;49.356;8.812;2022-11-15T10:05:16;5.30;;;4.13;;
33836;SDS011;20140;49.356;8.812;2022-11-15T10:07:55;6.87;;;3.77;;
33836;SDS011;20140;49.356;8.812;2022-11-15T10:13:34;5.97;;;5.30;;
33836;SDS011;20140;49.356;8.812;2022-11-15T10:16:04;7.87;;;5.40;;
33836;SDS011;20140;49.356;8.812;2022-11-15T10:21:17;5.78;;;4.60;;
33836;SDS011;20140;49.356;8.812;2022-11-15T10:23:45;5.20;;;4.28;;
33836;SDS011;20140;49.356;8.812;2022-11-15T10:26:11;5.10;;;4.60;;
33836;SDS011;20140;49.356;8.812;2022-11-15T10:28:40;5.47;;;4.32;;
33836;SDS011;20140;49.356;8.812;2022-11-15T10:31:20;6.50;;;5.00;;
33836;SDS011;20140;49.356;8.812;2022-11-15T10:33:50;5.90;;;4.47;;
33836;SDS011;20140;49.356;8.812;2022-11-15T10:36:22;7.07;;;5.75;;
33836;SDS011;20140;49.356;8.812;2022-11-15T10:41:19;10.98;;;6.38;;
33836;SDS011;20140;49.356;8.812;2022-11-15T10:46:36;5.78;;;5.15;;
33836;SDS011;20140;49.356;8.812;2022-11-15T10:49:16;8.45;;;5.80;;
33836;SDS011;20140;49.356;8.812;2022-11-15T10:51:47;8.25;;;5.72;;
33836;SDS011;20140;49.356;8.812;2022-11-15T10:54:33;8.18;;;5.85;;
33836;SDS011;20140;49.356;8.812;2022-11-15T10:57:10;5.97;;;5.35;;
33836;SDS011;20140;49.356;8.812;2022-11-15T10:59:39;8.30;;;5.07;;
33836;SDS011;20140;49.356;8.812;2022-11-15T11:02:33;7.18;;;4.95;;
33836;SDS011;20140;49.356;8.812;2022-11-15T11:07:57;7.93;;;4.80;;
33836;SDS011;20140;49.356;8.812;2022-11-15T11:10:53;7.13;;;4.82;;
33836;SDS011;20140;49.356;8.812;2022-11-15T11:13:27;5.55;;;4.32;;
33836;SDS011;20140;49.356;8.812;2022-11-15T11:16:08;7.03;;;4.25;;
33836;SDS011;20140;49.356;8.812;2022-11-15T11:18:58;4.43;;;3.78;;
33836;SDS011;20140;49.356;8.812;2022-11-15T11:24:43;5.53;;;4.00;;
33836;SDS011;20140;49.356;8.812;2022-11-15T11:27:21;4.72;;;3.30;;
33836;SDS011;20140;49.356;8.812;2022-11-15T11:29:59;4.05;;;3.53;;
33836;SDS011;20140;49.356;8.812;2022-11-15T11:32:42;4.32;;;3.58;;
33836;SDS011;20140;49.356;8.812;2022-11-15T11:35:24;6.63;;;4.23;;
33836;SDS011;20140;49.356;8.812;2022-11-15T11:38:27;6.77;;;3.10;;
33836;SDS011;20140;49.356;8.812;2022-11-15T11:46:56;5.38;;;3.00;;
33836;SDS011;20140;49.356;8.812;2022-11-15T11:52:11;3.20;;;2.30;;
33836;SDS011;20140;49.356;8.812;2022-11-15T12:00:12;5.65;;;3.55;;
33836;SDS011;20140;49.356;8.812;2022-11-15T12:02:50;4.93;;;3.78;;
33836;SDS011;20140;49.356;8.812;2022-11-15T12:07:54;4.87;;;3.50;;
33836;SDS011;20140;49.356;8.812;2022-11-15T12:10:30;5.40;;;3.60;;
33836;SDS011;20140;49.356;8.812;2022-11-15T12:13:16;3.63;;;3.25;;
33836;SDS011;20140;49.356;8.812;2022-11-15T12:15:53;3.10;;;2.42;;
33836;SDS011;20140;49.356;8.812;2022-11-15T12:18:26;3.47;;;2.73;;
33836;SDS011;20140;49.356;8.812;2022-11-15T12:20:54;4.45;;;3.75;;
33836;SDS011;20140;49.356;8.812;2022-11-15T12:23:27;4.75;;;3.65;;
33836;SDS011;20140;49.356;8.812;2022-11-15T12:26:04;5.25;;;2.75;;
33836;SDS011;20140;49.356;8.812;2022-11-15T12:28:49;6.43;;;3.22;;
33836;SDS011;20140;49.356;8.812;2022-11-15T12:34:48;5.57;;;3.08;;
33836;SDS011;20140;49.356;8.812;2022-11-15T12:40:27;6.07;;;2.92;;
33836;SDS011;20140;49.356;8.812;2022-11-15T12:45:31;3.85;;;2.65;;
33836;SDS011;20140;49.356;8.812;2022-11-15T13:06:53;3.92;;;2.58;;
33836;SDS011;20140;49.356;8.812;2022-11-15T13:12:09;4.28;;;2.65;;
33836;SDS011;20140;49.356;8.812;2022-11-15T13:14:50;4.15;;;2.88;;
33836;SDS011;20140;49.356;8.812;2022-11-15T13:22:45;6.07;;;3.37;;
33836;SDS011;20140;49.356;8.812;2022-11-15T13:28:01;12.43;;;3.58;;
33836;SDS011;20140;49.356;8.812;2022-11-15T13:30:35;5.00;;;2.75;;
33836;SDS011;20140;49.356;8.812;2022-11-15T13:33:07;6.10;;;3.00;;
33836;SDS011;20140;49.356;8.812;2022-11-15T13:35:36;3.78;;;2.50;;
33836;SDS011;20140;49.356;8.812;2022-11-15T13:38:05;5.65;;;3.60;;
33836;SDS011;20140;49.356;8.812;2022-11-15T13:40:34;6.45;;;3.70;;
33836;SDS011;20140;49.356;8.812;2022-11-15T13:43:17;13.23;;;8.20;;
33836;SDS011;20140;49.356;8.812;2022-11-15T13:46:06;5.75;;;4.18;;
33836;SDS011;20140;49.356;8.812;2022-11-15T13:48:35;6.03;;;3.97;;
33836;SDS011;20140;49.356;8.812;2022-11-15T13:51:05;6.45;;;5.00;;
33836;SDS011;20140;49.356;8.812;2022-11-15T13:53:38;12.48;;;7.15;;
33836;SDS011;20140;49.356;8.812;2022-11-15T13:56:09;6.90;;;5.40;;
33836;SDS011;20140;49.356;8.812;2022-11-15T13:58:36;8.52;;;6.13;;
33836;SDS011;20140;49.356;8.812;2022-11-15T14:01:04;6.83;;;4.83;;
33836;SDS011;20140;49.356;8.812;2022-11-15T14:03:52;5.07;;;4.10;;
33836;SDS011;20140;49.356;8.812;2022-11-15T14:06:24;7.03;;;4.80;;
33836;SDS011;20140;49.356;8.812;2022-11-15T14:09:15;5.60;;;4.07;;
33836;SDS011;20140;49.356;8.812;2022-11-15T14:15:02;6.53;;;2.90;;
33836;SDS011;20140;49.356;8.812;2022-11-15T14:17:57;6.50;;;2.53;;
33836;SDS011;20140;49.356;8.812;2022-11-15T14:22:52;4.40;;;3.00;;
33836;SDS011;20140;49.356;8.812;2022-11-15T14:25:19;5.85;;;2.75;;
33836;SDS011;20140;49.356;8.812;2022-11-15T14:30:43;4.25;;;2.70;;
33836;SDS011;20140;49.356;8.812;2022-11-15T14:33:20;3.70;;;3.00;;
33836;SDS011;20140;49.356;8.812;2022-11-15T14:35:58;3.03;;;2.75;;
33836;SDS011;20140;49.356;8.812;2022-11-15T14:38:29;6.63;;;3.10;;
33836;SDS011;20140;49.356;8.812;2022-11-15T14:40:54;6.60;;;4.07;;
33836;SDS011;20140;49.356;8.812;2022-11-15T14:43:20;5.85;;;4.55;;
33836;SDS011;20140;49.356;8.812;2022-11-15T14:45:46;4.80;;;3.90;;
33836;SDS011;20140;49.356;8.812;2022-11-15T14:48:11;7.20;;;4.57;;
33836;SDS011;20140;49.356;8.812;2022-11-15T14:50:37;6.85;;;5.05;;
33836;SDS011;20140;49.356;8.812;2022-11-15T14:53:03;7.07;;;4.65;;
33836;SDS011;20140;49.356;8.812;2022-11-15T14:55:30;9.10;;;5.43;;
33836;SDS011;20140;49.356;8.812;2022-11-15T14:58:00;9.85;;;7.13;;
33836;SDS011;20140;49.356;8.812;2022-11-15T15:00:27;7.28;;;5.85;;
33836;SDS011;20140;49.356;8.812;2022-11-15T15:02:57;15.60;;;4.82;;
33836;SDS011;20140;49.356;8.812;2022-11-15T15:05:24;5.93;;;4.38;;
33836;SDS011;20140;49.356;8.812;2022-11-15T15:07:58;7.50;;;5.30;;
33836;SDS011;20140;49.356;8.812;2022-11-15T15:10:24;6.30;;;4.45;;
33836;SDS011;20140;49.356;8.812;2022-11-15T15:12:52;6.45;;;5.03;;
33836;SDS011;20140;49.356;8.812;2022-11-15T15:15:20;8.93;;;5.13;;
33836;SDS011;20140;49.356;8.812;2022-11-15T15:17:49;6.75;;;5.70;;
33836;SDS011;20140;49.356;8.812;2022-11-15T15:20:15;6.35;;;4.53;;
33836;SDS011;20140;49.356;8.812;2022-11-15T15:22:41;9.43;;;5.55;;
33836;SDS011;20140;49.356;8.812;2022-11-15T15:25:20;7.23;;;4.97;;
33836;SDS011;20140;49.356;8.812;2022-11-15T15:27:52;5.78;;;4.30;;
33836;SDS011;20140;49.356;8.812;2022-11-15T15:30:17;5.95;;;2.78;;
33836;SDS011;20140;49.356;8.812;2022-11-15T15:32:43;4.70;;;2.93;;
33836;SDS011;20140;49.356;8.812;2022-11-15T15:35:11;2.80;;;2.37;;
33836;SDS011;20140;49.356;8.812;2022-11-15T15:37:37;3.42;;;2.45;;
33836;SDS011;20140;49.356;8.812;2022-11-15T15:40:03;2.67;;;1.88;;
33836;SDS011;20140;49.356;8.812;2022-11-15T15:42:41;4.82;;;2.75;;
33836;SDS011;20140;49.356;8.812;2022-11-15T15:45:07;4.00;;;2.45;;
33836;SDS011;20140;49.356;8.812;2022-11-15T15:47:34;8.50;;;5.40;;
33836;SDS011;20140;49.356;8.812;2022-11-15T15:49:59;9.73;;;6.13;;
33836;SDS011;20140;49.356;8.812;2022-11-15T15:52:25;6.68;;;5.20;;
33836;SDS011;20140;49.356;8.812;2022-11-15T15:54:50;8.87;;;4.70;;
33836;SDS011;20140;49.356;8.812;2022-11-15T15:57:16;9.20;;;5.20;;
33836;SDS011;20140;49.356;8.812;2022-11-15T15:59:42;6.20;;;4.43;;
33836;SDS011;20140;49.356;8.812;2022-11-15T16:02:11;7.43;;;5.33;;
33836;SDS011;20140;49.356;8.812;2022-11-15T16:04:37;8.90;;;5.75;;
33836;SDS011;20140;49.356;8.812;2022-11-15T16:07:03;7.80;;;5.85;;
33836;SDS011;20140;49.356;8.812;2022-11-15T16:09:29;9.65;;;6.78;;
33836;SDS011;20140;49.356;8.812;2022-11-15T16:12:13;8.80;;;5.68;;
33836;SDS011;20140;49.356;8.812;2022-11-15T16:14:41;10.20;;;6.53;;
33836;SDS011;20140;49.356;8.812;2022-11-15T16:17:08;9.30;;;6.10;;
33836;SDS011;20140;49.356;8.812;2022-11-15T16:19:42;10.93;;;7.63;;
33836;SDS011;20140;49.356;8.812;2022-11-15T16:22:07;11.60;;;5.57;;
33836;SDS011;20140;49.356;8.812;2022-11-15T16:24:33;7.65;;;5.68;;
33836;SDS011;20140;49.356;8.812;2022-11-15T16:26:58;7.50;;;6.10;;
33836;SDS011;20140;49.356;8.812;2022-11-15T16:29:24;9.27;;;6.77;;
33836;SDS011;20140;49.356;8.812;2022-11-15T16:31:49;9.88;;;7.03;;
33836;SDS011;20140;49.356;8.812;2022-11-15T16:34:15;13.45;;;5.82;;
33836;SDS011;20140;49.356;8.812;2022-11-15T16:36:41;6.05;;;4.57;;
33836;SDS011;20140;49.356;8.812;2022-11-15T16:39:08;8.03;;;5.63;;
33836;SDS011;20140;49.356;8.812;2022-11-15T16:41:38;8.35;;;5.78;;
33836;SDS011;20140;49.356;8.812;2022-11-15T16:44:04;10.47;;;6.00;;
33836;SDS011;20140;49.356;8.812;2022-11-15T16:46:29;7.45;;;4.13;;
33836;SDS011;20140;49.356;8.812;2022-11-15T16:48:55;7.00;;;3.92;;
33836;SDS011;20140;49.356;8.812;2022-11-15T16:51:21;5.78;;;4.32;;
33836;SDS011;20140;49.356;8.812;2022-11-15T16:53:48;5.13;;;3.47;;